createdAt,value
2022-08-30T00:01:01.186Z,20.46
2022-08-30T00:03:28.053Z,20.61
2022-08-30T00:05:56.252Z,20.59
2022-08-30T00:08:23.405Z,20.49
2022-08-30T00:10:51.287Z,20.53
2022-08-30T00:13:19.628Z,20.47
2022-08-30T00:15:47.036Z,20.34
2022-08-30T00:18:15.708Z,20.44
2022-08-30T00:20:42.819Z,20.44
2022-08-30T00:23:09.560Z,20.42
2022-08-30T00:25:36.181Z,20.34
2022-08-30T00:28:03.176Z,20.38
2022-08-30T00:30:30.312Z,20.35
2022-08-30T00:32:57.060Z,20.23
2022-08-30T00:35:24.054Z,20.16
2022-08-30T00:37:50.948Z,20.20
2022-08-30T00:40:20.380Z,20.16
2022-08-30T00:42:59.647Z,20.13
2022-08-30T00:45:32.833Z,20.21
2022-08-30T00:48:00.209Z,20.21
2022-08-30T00:50:33.510Z,20.12
2022-08-30T00:53:02.398Z,20.12
2022-08-30T00:55:29.403Z,20.11
2022-08-30T00:58:00.794Z,19.98
2022-08-30T01:00:29.220Z,20.05
2022-08-30T01:02:55.926Z,19.89
2022-08-30T01:05:23.921Z,19.94
2022-08-30T01:07:50.796Z,19.98
2022-08-30T01:10:18.055Z,19.97
2022-08-30T01:12:45.089Z,19.90
2022-08-30T01:15:14.522Z,19.95
2022-08-30T01:17:43.996Z,19.94
2022-08-30T01:20:16.438Z,19.91
2022-08-30T01:22:49.154Z,19.85
2022-08-30T01:25:21.919Z,19.78
2022-08-30T01:27:52.683Z,19.75
2022-08-30T01:30:19.610Z,19.76
2022-08-30T01:32:48.036Z,19.72
2022-08-30T01:35:18.134Z,19.69
2022-08-30T01:37:45.392Z,19.67
2022-08-30T01:40:14.576Z,19.63
2022-08-30T01:42:41.416Z,19.52
2022-08-30T01:45:08.789Z,19.57
2022-08-30T01:47:35.732Z,19.52
2022-08-30T01:50:02.338Z,19.45
2022-08-30T01:52:28.945Z,19.41
2022-08-30T01:54:55.621Z,19.40
2022-08-30T01:57:23.721Z,19.22
2022-08-30T01:59:50.662Z,19.29
2022-08-30T02:02:20.805Z,19.20
2022-08-30T02:04:47.421Z,19.02
2022-08-30T02:07:14.201Z,19.18
2022-08-30T02:09:44.194Z,19.17
2022-08-30T02:12:12.894Z,19.16
2022-08-30T02:14:39.499Z,19.01
2022-08-30T02:17:08.502Z,19.08
2022-08-30T02:19:35.402Z,19.09
2022-08-30T02:22:03.903Z,18.98
2022-08-30T02:24:30.772Z,18.90
2022-08-30T02:26:57.743Z,18.92
2022-08-30T02:29:25.306Z,18.85
2022-08-30T02:31:51.933Z,18.81
2022-08-30T02:34:19.065Z,18.71
2022-08-30T02:36:46.189Z,18.80
2022-08-30T02:39:13.715Z,18.68
2022-08-30T02:41:41.176Z,18.62
2022-08-30T02:44:08.700Z,18.49
2022-08-30T02:46:35.600Z,18.49
2022-08-30T02:49:13.005Z,18.54
2022-08-30T02:51:49.418Z,18.46
2022-08-30T02:54:19.971Z,18.38
2022-08-30T02:56:47.951Z,18.34
2022-08-30T02:59:16.506Z,18.25
2022-08-30T03:01:43.199Z,18.15
2022-08-30T03:04:10.218Z,18.27
2022-08-30T03:06:36.877Z,18.18
2022-08-30T03:09:03.553Z,18.05
2022-08-30T03:11:30.277Z,18.20
2022-08-30T03:13:56.900Z,18.10
2022-08-30T03:16:23.641Z,18.21
2022-08-30T03:18:50.275Z,18.15
2022-08-30T03:21:17.478Z,18.25
2022-08-30T03:23:44.410Z,18.28
2022-08-30T03:26:13.194Z,18.12
2022-08-30T03:28:40.021Z,18.09
2022-08-30T03:31:07.047Z,18.02
2022-08-30T03:33:33.687Z,18.04
2022-08-30T03:36:00.386Z,18.00
2022-08-30T03:38:26.954Z,17.83
2022-08-30T03:40:53.560Z,17.84
2022-08-30T03:43:20.141Z,17.78
2022-08-30T03:45:47.755Z,17.95
2022-08-30T03:48:14.499Z,18.10
2022-08-30T03:50:41.147Z,18.08
2022-08-30T03:53:07.815Z,17.93
2022-08-30T03:55:34.507Z,18.07
2022-08-30T03:58:01.081Z,17.92
2022-08-30T04:00:27.967Z,17.88
2022-08-30T04:02:54.539Z,17.80
2022-08-30T04:05:21.177Z,17.93
2022-08-30T04:07:47.845Z,17.72
2022-08-30T04:10:14.559Z,17.67
2022-08-30T04:12:42.553Z,17.70
2022-08-30T04:15:12.667Z,17.70
2022-08-30T04:17:39.490Z,17.49
2022-08-30T04:20:07.126Z,17.74
2022-08-30T04:22:33.902Z,17.89
2022-08-30T04:25:00.464Z,17.90
2022-08-30T04:27:27.100Z,17.88
2022-08-30T04:29:54.996Z,18.08
2022-08-30T04:32:22.907Z,18.01
2022-08-30T04:34:49.547Z,18.12
2022-08-30T04:37:16.787Z,18.11
2022-08-30T04:39:43.508Z,18.35
2022-08-30T04:42:10.790Z,18.36
2022-08-30T04:44:37.481Z,18.47
2022-08-30T04:47:04.158Z,18.57
2022-08-30T04:49:31.450Z,18.53
2022-08-30T04:51:58.429Z,18.64
2022-08-30T04:54:25.104Z,18.60
2022-08-30T04:56:51.666Z,18.65
2022-08-30T04:59:18.299Z,18.86
2022-08-30T05:01:46.129Z,18.95
2022-08-30T05:04:14.089Z,19.04
2022-08-30T05:06:41.104Z,19.09
2022-08-30T05:09:07.746Z,19.13
2022-08-30T05:11:34.438Z,19.06
2022-08-30T05:14:01.023Z,19.35
2022-08-30T05:16:27.795Z,19.35
2022-08-30T05:18:54.667Z,19.21
2022-08-30T05:21:25.585Z,19.33
2022-08-30T05:23:54.822Z,19.59
2022-08-30T05:26:27.790Z,19.45
2022-08-30T05:28:55.165Z,19.60
2022-08-30T05:31:25.354Z,19.74
2022-08-30T05:33:52.986Z,19.44
2022-08-30T05:36:21.302Z,19.62
2022-08-30T05:38:48.147Z,19.54
2022-08-30T05:41:14.917Z,19.57
2022-08-30T05:43:42.153Z,19.79
2022-08-30T05:46:12.128Z,19.97
2022-08-30T05:48:39.433Z,19.65
2022-08-30T05:51:21.570Z,19.84
2022-08-30T05:53:49.468Z,19.62
2022-08-30T05:56:18.338Z,19.92
2022-08-30T05:58:45.057Z,20.27
2022-08-30T06:01:21.008Z,20.04
2022-08-30T06:03:47.912Z,20.24
2022-08-30T06:06:14.845Z,20.40
2022-08-30T06:08:42.530Z,20.51
2022-08-30T06:11:09.126Z,20.59
2022-08-30T06:13:35.677Z,20.62
2022-08-30T06:16:05.381Z,20.98
2022-08-30T06:18:31.955Z,20.71
2022-08-30T06:20:58.653Z,20.71
2022-08-30T06:23:25.260Z,20.66
2022-08-30T06:25:51.803Z,20.76
2022-08-30T06:28:18.553Z,20.85
2022-08-30T06:30:45.269Z,20.85
2022-08-30T06:33:12.086Z,20.66
2022-08-30T06:35:52.402Z,20.77
2022-08-30T06:38:25.253Z,20.79
2022-08-30T06:40:51.891Z,20.79
2022-08-30T06:43:18.458Z,20.96
2022-08-30T06:45:45.046Z,21.18
2022-08-30T06:48:11.739Z,21.32
2022-08-30T06:50:38.408Z,21.24
2022-08-30T06:53:06.116Z,21.19
2022-08-30T06:55:33.514Z,21.43
2022-08-30T06:58:01.276Z,21.19
2022-08-30T07:00:27.987Z,21.38
2022-08-30T07:02:54.885Z,21.34
2022-08-30T07:05:23.639Z,21.74
2022-08-30T07:07:53.270Z,21.63
2022-08-30T07:10:21.455Z,21.69
2022-08-30T07:12:48.653Z,21.54
2022-08-30T07:15:15.476Z,21.67
2022-08-30T07:18:00.733Z,21.37
2022-08-30T07:20:27.235Z,21.78
2022-08-30T07:22:53.812Z,21.78
2022-08-30T07:25:20.734Z,21.96
2022-08-30T07:27:47.337Z,21.76
2022-08-30T07:30:14.213Z,21.91
2022-08-30T07:32:40.808Z,21.73
2022-08-30T07:35:07.679Z,21.87
2022-08-30T07:37:34.251Z,22.04
2022-08-30T07:40:01.517Z,22.15
2022-08-30T07:42:28.131Z,22.13
2022-08-30T07:44:56.738Z,22.07
2022-08-30T07:47:23.619Z,22.10
2022-08-30T07:49:50.259Z,22.22
2022-08-30T07:52:17.000Z,22.33
2022-08-30T07:54:43.637Z,22.29
2022-08-30T07:57:11.590Z,22.44
2022-08-30T07:59:38.235Z,22.19
2022-08-30T08:02:04.995Z,22.29
2022-08-30T08:04:33.145Z,22.19
2022-08-30T08:06:59.702Z,21.97
2022-08-30T08:09:26.324Z,21.93
2022-08-30T08:11:53.005Z,22.01
2022-08-30T08:14:21.465Z,22.24
2022-08-30T08:16:48.503Z,22.41
2022-08-30T08:19:15.399Z,22.37
2022-08-30T08:21:42.032Z,22.24
2022-08-30T08:24:08.647Z,22.32
2022-08-30T08:26:37.001Z,22.43
2022-08-30T08:29:05.432Z,22.62
2022-08-30T08:31:33.365Z,22.66
2022-08-30T08:36:33.995Z,22.57
2022-08-30T08:39:01.082Z,22.57
2022-08-30T08:41:58.939Z,22.55
2022-08-30T08:44:34.234Z,22.54
2022-08-30T08:47:22.557Z,22.83
2022-08-30T08:49:52.158Z,22.54
2022-08-30T08:52:42.771Z,22.65
2022-08-30T08:55:15.491Z,22.96
2022-08-30T08:57:42.215Z,22.88
2022-08-30T09:00:11.214Z,22.78
2022-08-30T09:03:00.904Z,22.66
2022-08-30T09:05:36.384Z,23.08
2022-08-30T09:08:09.751Z,23.24
2022-08-30T09:10:49.890Z,22.92
2022-08-30T09:13:18.848Z,22.89
2022-08-30T09:15:45.865Z,23.16
2022-08-30T09:18:18.934Z,23.23
2022-08-30T09:20:49.477Z,23.07
2022-08-30T09:23:16.031Z,22.84
2022-08-30T09:26:02.619Z,22.97
2022-08-30T09:28:51.063Z,23.00
2022-08-30T09:34:05.810Z,23.06
2022-08-30T09:36:46.839Z,23.05
2022-08-30T09:39:27.552Z,23.12
2022-08-30T09:41:54.792Z,23.09
2022-08-30T09:44:24.705Z,23.13
2022-08-30T09:46:56.993Z,23.28
2022-08-30T09:49:41.396Z,23.24
2022-08-30T09:52:32.572Z,23.33
2022-08-30T09:55:04.997Z,23.20
2022-08-30T09:57:56.099Z,23.13
2022-08-30T10:00:26.087Z,23.49
2022-08-30T10:03:03.093Z,23.43
2022-08-30T10:05:30.777Z,23.62
2022-08-30T10:08:16.459Z,23.70
2022-08-30T10:10:56.440Z,23.51
2022-08-30T10:13:44.269Z,23.49
2022-08-30T10:16:26.450Z,23.59
2022-08-30T10:19:06.277Z,23.32
2022-08-30T10:21:42.029Z,23.33
2022-08-30T10:24:20.743Z,23.63
2022-08-30T10:26:54.674Z,23.48
2022-08-30T10:29:28.578Z,23.70
2022-08-30T10:32:01.128Z,23.82
2022-08-30T10:34:27.697Z,23.76
2022-08-30T10:37:04.593Z,23.92
2022-08-30T10:39:50.945Z,23.92
2022-08-30T10:42:21.406Z,24.09
2022-08-30T10:45:04.129Z,23.98
2022-08-30T10:47:55.352Z,24.06
2022-08-30T10:50:25.846Z,23.99
2022-08-30T10:53:20.040Z,23.97
2022-08-30T10:55:57.018Z,24.20
2022-08-30T10:58:23.781Z,24.04
2022-08-30T11:01:12.823Z,24.12
2022-08-30T11:04:04.377Z,24.44
2022-08-30T11:06:54.898Z,24.66
2022-08-30T11:09:53.933Z,24.68
2022-08-30T11:12:36.864Z,24.25
2022-08-30T11:15:25.265Z,24.00
2022-08-30T11:18:08.643Z,24.13
2022-08-30T11:20:50.940Z,24.29
2022-08-30T11:23:27.073Z,24.35
2022-08-30T11:26:06.566Z,24.67
2022-08-30T11:28:37.216Z,25.01
2022-08-30T11:31:22.561Z,24.55
2022-08-30T11:33:54.011Z,24.41
2022-08-30T11:36:37.766Z,24.66
2022-08-30T11:39:05.582Z,24.75
2022-08-30T11:41:48.015Z,24.69
2022-08-30T11:44:31.338Z,24.65
2022-08-30T11:47:00.389Z,24.59
2022-08-30T11:49:46.396Z,24.60
2022-08-30T11:52:55.145Z,24.54
2022-08-30T11:55:42.519Z,24.88
2022-08-30T11:58:34.771Z,24.84
2022-08-30T12:01:40.935Z,24.85
2022-08-30T12:04:16.088Z,24.87
2022-08-30T12:06:44.545Z,24.86
2022-08-30T12:09:26.421Z,25.06
2022-08-30T12:12:29.355Z,25.00
2022-08-30T12:14:57.650Z,24.99
2022-08-30T12:18:04.022Z,25.14
2022-08-30T12:20:45.802Z,25.07
2022-08-30T12:23:38.257Z,25.24
2022-08-30T12:26:20.377Z,25.20
2022-08-30T12:28:49.188Z,24.97
2022-08-30T12:31:20.734Z,24.90
2022-08-30T12:33:54.618Z,24.91
2022-08-30T12:36:38.898Z,24.80
2022-08-30T12:39:17.486Z,25.19
2022-08-30T12:41:45.197Z,24.88
2022-08-30T12:44:21.422Z,25.05
2022-08-30T12:46:51.055Z,25.01
2022-08-30T12:49:19.306Z,25.15
2022-08-30T12:51:46.615Z,25.12
2022-08-30T12:54:28.497Z,25.07
2022-08-30T12:57:19.258Z,25.18
2022-08-30T13:00:01.806Z,25.25
2022-08-30T13:02:43.210Z,25.07
2022-08-30T13:05:28.208Z,25.26
2022-08-30T13:08:07.928Z,25.30
2022-08-30T13:10:34.795Z,25.30
2022-08-30T13:13:05.411Z,25.44
2022-08-30T13:15:35.853Z,25.30
2022-08-30T13:18:26.629Z,25.39
2022-08-30T13:21:09.777Z,25.26
2022-08-30T13:23:36.408Z,25.23
2022-08-30T13:26:04.983Z,25.38
2022-08-30T13:28:31.632Z,25.31
2022-08-30T13:30:58.206Z,25.50
2022-08-30T13:33:24.789Z,25.55
2022-08-30T13:35:53.161Z,25.74
2022-08-30T13:38:21.002Z,25.56
2022-08-30T13:40:47.985Z,25.56
2022-08-30T13:43:14.739Z,25.21
2022-08-30T13:45:43.181Z,25.12
2022-08-30T13:48:13.560Z,25.42
2022-08-30T13:50:40.764Z,25.48
2022-08-30T13:53:09.327Z,25.27
2022-08-30T13:55:37.717Z,25.40
2022-08-30T13:58:04.508Z,25.17
2022-08-30T14:00:37.451Z,25.27
2022-08-30T14:03:04.592Z,25.49
2022-08-30T14:08:46.404Z,25.29
2022-08-30T14:11:18.518Z,25.36
2022-08-30T14:16:33.737Z,25.35
2022-08-30T14:19:01.270Z,25.34
2022-08-30T14:21:28.436Z,25.41
2022-08-30T14:23:56.504Z,25.37
2022-08-30T14:26:33.179Z,25.29
2022-08-30T14:29:05.423Z,25.33
2022-08-30T14:31:36.606Z,25.41
2022-08-30T14:34:05.150Z,25.38
2022-08-30T14:36:33.417Z,25.45
2022-08-30T14:39:00.957Z,25.34
2022-08-30T14:41:27.585Z,25.21
2022-08-30T14:43:54.236Z,25.45
2022-08-30T14:46:22.061Z,25.40
2022-08-30T14:48:49.097Z,25.49
2022-08-30T14:51:19.439Z,25.29
2022-08-30T14:53:46.998Z,25.27
2022-08-30T14:56:16.032Z,25.17
2022-08-30T14:58:43.106Z,25.27
2022-08-30T15:01:10.929Z,25.30
2022-08-30T15:03:40.148Z,25.22
2022-08-30T15:06:07.297Z,25.21
2022-08-30T15:08:35.391Z,25.30
2022-08-30T15:11:10.114Z,25.14
2022-08-30T15:13:36.876Z,25.20
2022-08-30T15:16:17.326Z,25.08
2022-08-30T15:18:43.991Z,25.19
2022-08-30T15:21:10.866Z,25.12
2022-08-30T15:23:38.228Z,24.97
2022-08-30T15:26:06.802Z,24.90
2022-08-30T15:28:34.770Z,24.98
2022-08-30T15:31:08.250Z,25.04
2022-08-30T15:33:36.772Z,24.94
2022-08-30T15:36:04.968Z,24.93
2022-08-30T15:38:32.085Z,25.06
2022-08-30T15:41:02.146Z,25.29
2022-08-30T15:43:28.870Z,25.56
2022-08-30T15:45:56.478Z,25.86
2022-08-30T15:48:23.261Z,25.98
2022-08-30T15:50:58.208Z,26.21
2022-08-30T15:53:25.033Z,25.99
2022-08-30T15:55:51.696Z,25.88
2022-08-30T15:58:18.968Z,25.75
2022-08-30T16:00:45.949Z,25.56
2022-08-30T16:03:12.903Z,25.20
2022-08-30T16:05:39.513Z,25.13
2022-08-30T16:08:06.120Z,25.02
2022-08-30T16:10:33.018Z,24.82
2022-08-30T16:13:01.620Z,24.92
2022-08-30T16:15:29.595Z,25.01
2022-08-30T16:17:56.286Z,24.85
2022-08-30T16:20:24.677Z,24.65
2022-08-30T16:22:52.113Z,24.68
2022-08-30T16:25:18.702Z,24.58
2022-08-30T16:27:45.400Z,24.29
2022-08-30T16:30:13.333Z,24.02
2022-08-30T16:32:40.192Z,23.86
2022-08-30T16:35:07.712Z,23.71
2022-08-30T16:37:34.384Z,23.62
2022-08-30T16:40:01.545Z,23.52
2022-08-30T16:42:28.239Z,23.50
2022-08-30T16:44:55.635Z,23.33
2022-08-30T16:47:22.329Z,23.36
2022-08-30T16:49:49.501Z,23.26
2022-08-30T16:52:17.324Z,23.22
2022-08-30T16:54:45.128Z,23.11
2022-08-30T16:57:12.011Z,23.09
2022-08-30T16:59:38.607Z,23.01
2022-08-30T17:02:05.276Z,22.95
2022-08-30T17:04:32.782Z,22.89
2022-08-30T17:06:59.438Z,22.87
2022-08-30T17:09:26.405Z,22.88
2022-08-30T17:11:53.071Z,22.81
2022-08-30T17:14:28.226Z,22.77
2022-08-30T17:16:57.866Z,22.71
2022-08-30T17:19:27.082Z,22.66
2022-08-30T17:21:56.275Z,22.58
2022-08-30T17:24:22.961Z,22.51
2022-08-30T17:26:51.372Z,22.51
2022-08-30T17:29:18.085Z,22.45
2022-08-30T17:31:50.891Z,22.39
2022-08-30T17:34:21.178Z,22.34
2022-08-30T17:36:50.117Z,22.30
2022-08-30T17:39:16.770Z,22.17
2022-08-30T17:41:49.630Z,22.04
2022-08-30T17:44:18.730Z,21.89
2022-08-30T17:46:45.420Z,21.90
2022-08-30T17:49:12.086Z,21.83
2022-08-30T17:51:42.931Z,21.96
2022-08-30T17:54:12.662Z,21.92
2022-08-30T17:56:40.528Z,21.92
2022-08-30T17:59:09.157Z,21.74
2022-08-30T18:01:36.332Z,21.87
2022-08-30T18:04:06.116Z,21.62
2022-08-30T18:06:34.058Z,21.69
2022-08-30T18:09:01.465Z,21.53
2022-08-30T18:11:28.331Z,21.41
2022-08-30T18:13:55.055Z,21.29
2022-08-30T18:16:26.436Z,21.33
2022-08-30T18:18:57.251Z,21.19
2022-08-30T18:21:25.370Z,21.18
2022-08-30T18:23:52.649Z,21.40
2022-08-30T18:26:24.279Z,21.35
2022-08-30T18:28:51.473Z,21.27
2022-08-30T18:31:18.107Z,21.26
2022-08-30T18:33:45.278Z,21.26
2022-08-30T18:36:12.088Z,21.20
2022-08-30T18:38:39.902Z,21.20
2022-08-30T18:41:13.782Z,21.31
2022-08-30T18:43:41.114Z,21.33
2022-08-30T18:46:10.338Z,21.37
2022-08-30T18:48:39.188Z,21.27
2022-08-30T18:51:14.446Z,21.24
2022-08-30T18:53:41.857Z,20.99
2022-08-30T18:56:09.182Z,20.73
2022-08-30T18:58:36.074Z,20.95
2022-08-30T19:01:03.525Z,20.82
2022-08-30T19:03:33.714Z,20.93
2022-08-30T19:06:05.200Z,20.94
2022-08-30T19:08:32.257Z,20.90
2022-08-30T19:11:05.058Z,20.92
2022-08-30T19:13:34.973Z,20.85
2022-08-30T19:16:02.670Z,20.78
2022-08-30T19:18:29.316Z,20.43
2022-08-30T19:20:56.229Z,20.69
2022-08-30T19:23:23.454Z,20.67
2022-08-30T19:25:51.529Z,20.48
2022-08-30T19:28:20.457Z,20.43
2022-08-30T19:30:47.143Z,20.33
2022-08-30T19:33:13.870Z,20.32
2022-08-30T19:35:40.515Z,20.29
2022-08-30T19:38:07.141Z,20.44
2022-08-30T19:40:33.833Z,20.34
2022-08-30T19:43:00.861Z,20.31
2022-08-30T19:45:27.876Z,20.22
2022-08-30T19:47:54.792Z,20.19
2022-08-30T19:50:22.389Z,19.92
2022-08-30T19:52:54.264Z,19.82
2022-08-30T19:55:28.415Z,19.63
2022-08-30T19:57:57.295Z,19.68
2022-08-30T20:00:23.923Z,19.63
2022-08-30T20:02:51.208Z,19.66
2022-08-30T20:05:18.700Z,19.55
2022-08-30T20:07:45.533Z,19.56
2022-08-30T20:10:15.162Z,19.57
2022-08-30T20:12:47.542Z,19.72
2022-08-30T20:15:17.721Z,19.75
2022-08-30T20:18:03.358Z,19.78
2022-08-30T20:20:33.604Z,19.65
2022-08-30T20:23:03.673Z,19.56
2022-08-30T20:25:30.730Z,19.64
2022-08-30T20:27:57.414Z,19.57
2022-08-30T20:30:24.032Z,19.62
2022-08-30T20:32:52.609Z,19.60
2022-08-30T20:35:19.465Z,19.53
2022-08-30T20:37:46.604Z,19.55
2022-08-30T20:40:15.925Z,19.51
2022-08-30T20:42:45.503Z,19.42
2022-08-30T20:45:16.893Z,19.29
2022-08-30T20:47:44.369Z,19.38
2022-08-30T20:50:14.119Z,19.36
2022-08-30T20:52:41.098Z,19.31
2022-08-30T20:55:09.139Z,19.31
2022-08-30T20:57:35.740Z,19.27
2022-08-30T21:00:06.089Z,19.29
2022-08-30T21:02:34.320Z,19.29
2022-08-30T21:05:00.977Z,19.42
2022-08-30T21:07:27.678Z,19.42
2022-08-30T21:09:54.563Z,19.55
2022-08-30T21:12:21.182Z,19.43
2022-08-30T21:14:47.755Z,19.60
2022-08-30T21:17:14.296Z,19.54
2022-08-30T21:19:43.944Z,19.47
2022-08-30T21:22:11.316Z,19.65
2022-08-30T21:24:38.415Z,19.56
2022-08-30T21:27:06.300Z,19.58
2022-08-30T21:29:33.207Z,19.47
2022-08-30T21:31:59.892Z,19.51
2022-08-30T21:34:26.511Z,19.51
2022-08-30T21:36:53.482Z,19.33
2022-08-30T21:39:23.465Z,19.48
2022-08-30T21:41:54.407Z,19.49
2022-08-30T21:44:23.869Z,19.37
2022-08-30T21:46:52.849Z,19.35
2022-08-30T21:49:21.761Z,19.13
2022-08-30T21:51:49.969Z,19.28
2022-08-30T21:54:18.218Z,19.22
2022-08-30T21:56:47.629Z,19.18
2022-08-30T21:59:14.607Z,19.15
2022-08-30T22:01:41.587Z,19.15
2022-08-30T22:04:10.151Z,19.17
2022-08-30T22:06:38.665Z,18.99
2022-08-30T22:09:08.687Z,19.00
2022-08-30T22:11:35.969Z,18.93
2022-08-30T22:14:04.237Z,18.92
2022-08-30T22:16:31.081Z,18.87
2022-08-30T22:18:58.231Z,18.76
2022-08-30T22:21:27.898Z,18.75
2022-08-30T22:23:55.529Z,18.75
2022-08-30T22:26:23.858Z,18.75
2022-08-30T22:28:51.624Z,18.72
2022-08-30T22:31:19.808Z,18.70
2022-08-30T22:33:47.897Z,18.68
2022-08-30T22:36:19.390Z,18.63
2022-08-30T22:38:46.115Z,18.62
2022-08-30T22:41:17.508Z,18.61
2022-08-30T22:43:44.362Z,18.53
2022-08-30T22:46:14.221Z,18.55
2022-08-30T22:48:44.019Z,18.44
2022-08-30T22:51:11.035Z,18.46
2022-08-30T22:53:37.862Z,18.51
2022-08-30T22:56:11.734Z,18.54
2022-08-30T22:58:38.637Z,18.47
2022-08-30T23:01:05.716Z,18.37
2022-08-30T23:03:33.745Z,18.34
2022-08-30T23:06:00.391Z,18.41
2022-08-30T23:08:27.070Z,18.37
2022-08-30T23:10:53.710Z,18.37
2022-08-30T23:13:20.409Z,18.29
2022-08-30T23:15:47.026Z,18.29
2022-08-30T23:18:13.605Z,18.37
2022-08-30T23:20:40.207Z,18.27
2022-08-30T23:23:06.733Z,18.23
2022-08-30T23:25:52.487Z,18.31
2022-08-30T23:28:39.429Z,18.16
2022-08-30T23:31:34.270Z,18.17
2022-08-30T23:34:19.993Z,18.22
2022-08-30T23:37:05.466Z,18.12
2022-08-30T23:39:50.711Z,18.13
2022-08-30T23:42:36.219Z,18.10
2022-08-30T23:45:21.390Z,18.14
2022-08-30T23:48:06.306Z,18.16
2022-08-30T23:50:51.737Z,18.22
2022-08-30T23:53:36.870Z,18.23
2022-08-30T23:56:22.287Z,18.20
2022-08-30T23:59:07.158Z,18.04
